sensor_id;sensor_type;location;lat;lon;timestamp;P1;durP1;ratioP1;P2;durP2;ratioP2
79747;SDS011;69232;47.488;19.268;2023-05-24T00:02:04;11.98;;;6.28;;
79747;SDS011;69232;47.488;19.268;2023-05-24T00:04:30;9.38;;;5.40;;
79747;SDS011;69232;47.488;19.268;2023-05-24T00:06:56;8.68;;;5.63;;
79747;SDS011;69232;47.488;19.268;2023-05-24T00:09:22;8.55;;;5.68;;
79747;SDS011;69232;47.488;19.268;2023-05-24T00:11:47;9.93;;;6.00;;
79747;SDS011;69232;47.488;19.268;2023-05-24T00:14:13;9.75;;;5.50;;
79747;SDS011;69232;47.488;19.268;2023-05-24T00:16:39;9.77;;;6.15;;
79747;SDS011;69232;47.488;19.268;2023-05-24T00:19:04;9.48;;;5.40;;
79747;SDS011;69232;47.488;19.268;2023-05-24T00:21:29;9.13;;;5.43;;
79747;SDS011;69232;47.488;19.268;2023-05-24T00:23:56;9.55;;;6.00;;
79747;SDS011;69232;47.488;19.268;2023-05-24T00:26:21;10.73;;;6.32;;
79747;SDS011;69232;47.488;19.268;2023-05-24T00:28:47;10.07;;;6.22;;
79747;SDS011;69232;47.488;19.268;2023-05-24T00:31:12;9.60;;;6.63;;
79747;SDS011;69232;47.488;19.268;2023-05-24T00:33:38;12.55;;;7.68;;
79747;SDS011;69232;47.488;19.268;2023-05-24T00:36:04;11.60;;;6.75;;
79747;SDS011;69232;47.488;19.268;2023-05-24T00:38:29;10.20;;;6.13;;
79747;SDS011;69232;47.488;19.268;2023-05-24T00:40:55;13.23;;;6.47;;
79747;SDS011;69232;47.488;19.268;2023-05-24T00:43:21;11.13;;;6.93;;
79747;SDS011;69232;47.488;19.268;2023-05-24T00:45:47;12.52;;;6.93;;
79747;SDS011;69232;47.488;19.268;2023-05-24T00:48:13;9.88;;;6.80;;
79747;SDS011;69232;47.488;19.268;2023-05-24T00:50:39;10.15;;;6.35;;
79747;SDS011;69232;47.488;19.268;2023-05-24T00:53:05;11.30;;;6.82;;
79747;SDS011;69232;47.488;19.268;2023-05-24T00:55:33;11.07;;;6.32;;
79747;SDS011;69232;47.488;19.268;2023-05-24T00:57:58;10.43;;;6.25;;
79747;SDS011;69232;47.488;19.268;2023-05-24T01:00:24;12.02;;;6.72;;
79747;SDS011;69232;47.488;19.268;2023-05-24T01:02:51;11.98;;;6.15;;
79747;SDS011;69232;47.488;19.268;2023-05-24T01:05:16;13.00;;;6.53;;
79747;SDS011;69232;47.488;19.268;2023-05-24T01:10:31;9.27;;;5.32;;
79747;SDS011;69232;47.488;19.268;2023-05-24T01:16:06;9.18;;;5.93;;
79747;SDS011;69232;47.488;19.268;2023-05-24T01:18:55;8.68;;;5.10;;
79747;SDS011;69232;47.488;19.268;2023-05-24T01:29:26;9.70;;;5.00;;
79747;SDS011;69232;47.488;19.268;2023-05-24T01:31:53;8.60;;;5.18;;
79747;SDS011;69232;47.488;19.268;2023-05-24T01:34:18;9.32;;;5.07;;
79747;SDS011;69232;47.488;19.268;2023-05-24T01:36:44;12.02;;;5.50;;
79747;SDS011;69232;47.488;19.268;2023-05-24T01:39:09;10.23;;;5.82;;
79747;SDS011;69232;47.488;19.268;2023-05-24T01:41:38;11.23;;;5.90;;
79747;SDS011;69232;47.488;19.268;2023-05-24T01:46:42;8.00;;;5.32;;
79747;SDS011;69232;47.488;19.268;2023-05-24T01:49:21;10.93;;;6.28;;
79747;SDS011;69232;47.488;19.268;2023-05-24T01:54:36;7.88;;;5.07;;
79747;SDS011;69232;47.488;19.268;2023-05-24T01:57:04;9.32;;;5.97;;
79747;SDS011;69232;47.488;19.268;2023-05-24T01:59:31;8.48;;;5.15;;
79747;SDS011;69232;47.488;19.268;2023-05-24T02:01:57;9.95;;;5.40;;
79747;SDS011;69232;47.488;19.268;2023-05-24T02:04:23;8.38;;;5.07;;
79747;SDS011;69232;47.488;19.268;2023-05-24T02:06:48;11.10;;;5.57;;
79747;SDS011;69232;47.488;19.268;2023-05-24T02:09:14;10.80;;;5.38;;
79747;SDS011;69232;47.488;19.268;2023-05-24T02:11:39;9.13;;;5.40;;
79747;SDS011;69232;47.488;19.268;2023-05-24T02:14:05;8.20;;;5.35;;
79747;SDS011;69232;47.488;19.268;2023-05-24T02:16:30;8.52;;;4.93;;
79747;SDS011;69232;47.488;19.268;2023-05-24T02:18:57;7.75;;;4.65;;
79747;SDS011;69232;47.488;19.268;2023-05-24T02:21:22;7.13;;;4.97;;
79747;SDS011;69232;47.488;19.268;2023-05-24T02:23:49;8.57;;;5.05;;
79747;SDS011;69232;47.488;19.268;2023-05-24T02:26:14;6.75;;;4.70;;
79747;SDS011;69232;47.488;19.268;2023-05-24T02:28:41;7.13;;;4.57;;
79747;SDS011;69232;47.488;19.268;2023-05-24T02:31:07;8.57;;;5.20;;
79747;SDS011;69232;47.488;19.268;2023-05-24T02:33:33;7.93;;;4.78;;
79747;SDS011;69232;47.488;19.268;2023-05-24T02:35:59;7.00;;;4.85;;
79747;SDS011;69232;47.488;19.268;2023-05-24T02:38:25;8.02;;;5.32;;
79747;SDS011;69232;47.488;19.268;2023-05-24T02:40:50;7.30;;;5.10;;
79747;SDS011;69232;47.488;19.268;2023-05-24T02:43:16;7.97;;;5.43;;
79747;SDS011;69232;47.488;19.268;2023-05-24T02:45:41;9.50;;;4.90;;
79747;SDS011;69232;47.488;19.268;2023-05-24T02:48:07;8.15;;;5.30;;
79747;SDS011;69232;47.488;19.268;2023-05-24T02:50:32;8.75;;;6.03;;
79747;SDS011;69232;47.488;19.268;2023-05-24T02:52:58;8.45;;;5.72;;
79747;SDS011;69232;47.488;19.268;2023-05-24T02:55:23;11.98;;;5.97;;
79747;SDS011;69232;47.488;19.268;2023-05-24T02:57:48;10.70;;;7.07;;
79747;SDS011;69232;47.488;19.268;2023-05-24T03:00:14;10.75;;;6.63;;
79747;SDS011;69232;47.488;19.268;2023-05-24T03:02:40;10.73;;;6.90;;
79747;SDS011;69232;47.488;19.268;2023-05-24T03:05:05;11.77;;;7.68;;
79747;SDS011;69232;47.488;19.268;2023-05-24T03:07:32;11.95;;;6.97;;
79747;SDS011;69232;47.488;19.268;2023-05-24T03:09:57;13.70;;;6.85;;
79747;SDS011;69232;47.488;19.268;2023-05-24T03:12:22;13.57;;;6.38;;
79747;SDS011;69232;47.488;19.268;2023-05-24T03:14:48;11.95;;;7.72;;
79747;SDS011;69232;47.488;19.268;2023-05-24T03:17:13;14.07;;;6.82;;
79747;SDS011;69232;47.488;19.268;2023-05-24T03:19:39;12.25;;;6.95;;
79747;SDS011;69232;47.488;19.268;2023-05-24T03:22:04;16.05;;;7.25;;
79747;SDS011;69232;47.488;19.268;2023-05-24T03:24:30;11.15;;;7.05;;
79747;SDS011;69232;47.488;19.268;2023-05-24T03:26:55;9.55;;;6.07;;
79747;SDS011;69232;47.488;19.268;2023-05-24T03:29:21;11.05;;;6.20;;
79747;SDS011;69232;47.488;19.268;2023-05-24T03:31:47;12.88;;;6.60;;
79747;SDS011;69232;47.488;19.268;2023-05-24T03:34:12;11.52;;;6.90;;
79747;SDS011;69232;47.488;19.268;2023-05-24T03:36:37;15.75;;;7.38;;
79747;SDS011;69232;47.488;19.268;2023-05-24T03:39:03;13.10;;;7.70;;
79747;SDS011;69232;47.488;19.268;2023-05-24T03:41:29;11.65;;;7.10;;
79747;SDS011;69232;47.488;19.268;2023-05-24T03:43:55;11.27;;;6.78;;
79747;SDS011;69232;47.488;19.268;2023-05-24T03:46:20;12.15;;;7.10;;
79747;SDS011;69232;47.488;19.268;2023-05-24T03:48:46;13.15;;;7.43;;
79747;SDS011;69232;47.488;19.268;2023-05-24T03:51:12;14.30;;;7.22;;
79747;SDS011;69232;47.488;19.268;2023-05-24T03:53:37;12.15;;;7.07;;
79747;SDS011;69232;47.488;19.268;2023-05-24T03:56:03;13.60;;;7.50;;
79747;SDS011;69232;47.488;19.268;2023-05-24T03:58:28;13.65;;;8.55;;
79747;SDS011;69232;47.488;19.268;2023-05-24T04:00:54;11.57;;;7.53;;
79747;SDS011;69232;47.488;19.268;2023-05-24T04:03:19;14.05;;;7.18;;
79747;SDS011;69232;47.488;19.268;2023-05-24T04:05:45;14.27;;;8.10;;
79747;SDS011;69232;47.488;19.268;2023-05-24T04:08:10;11.60;;;7.57;;
79747;SDS011;69232;47.488;19.268;2023-05-24T04:10:36;16.17;;;7.55;;
79747;SDS011;69232;47.488;19.268;2023-05-24T04:13:02;14.95;;;8.25;;
79747;SDS011;69232;47.488;19.268;2023-05-24T04:15:27;13.57;;;7.47;;
79747;SDS011;69232;47.488;19.268;2023-05-24T04:17:53;12.05;;;7.60;;
79747;SDS011;69232;47.488;19.268;2023-05-24T04:20:19;12.98;;;8.05;;
79747;SDS011;69232;47.488;19.268;2023-05-24T04:22:49;16.52;;;7.55;;
79747;SDS011;69232;47.488;19.268;2023-05-24T04:25:15;13.65;;;7.68;;
79747;SDS011;69232;47.488;19.268;2023-05-24T04:27:41;14.60;;;7.18;;
79747;SDS011;69232;47.488;19.268;2023-05-24T04:30:06;11.57;;;7.60;;
79747;SDS011;69232;47.488;19.268;2023-05-24T04:32:33;13.13;;;7.30;;
79747;SDS011;69232;47.488;19.268;2023-05-24T04:34:59;16.30;;;8.90;;
79747;SDS011;69232;47.488;19.268;2023-05-24T04:37:26;15.60;;;8.77;;
79747;SDS011;69232;47.488;19.268;2023-05-24T04:39:53;15.68;;;8.50;;
79747;SDS011;69232;47.488;19.268;2023-05-24T04:42:19;19.27;;;9.13;;
79747;SDS011;69232;47.488;19.268;2023-05-24T04:44:44;16.17;;;9.90;;
79747;SDS011;69232;47.488;19.268;2023-05-24T04:47:10;17.65;;;9.68;;
79747;SDS011;69232;47.488;19.268;2023-05-24T04:49:36;19.88;;;12.35;;
79747;SDS011;69232;47.488;19.268;2023-05-24T04:52:02;18.58;;;11.45;;
79747;SDS011;69232;47.488;19.268;2023-05-24T04:54:28;20.17;;;11.95;;
79747;SDS011;69232;47.488;19.268;2023-05-24T04:56:54;22.00;;;12.02;;
79747;SDS011;69232;47.488;19.268;2023-05-24T04:59:19;28.27;;;14.30;;
79747;SDS011;69232;47.488;19.268;2023-05-24T05:01:44;24.17;;;13.93;;
79747;SDS011;69232;47.488;19.268;2023-05-24T05:04:10;27.40;;;12.82;;
79747;SDS011;69232;47.488;19.268;2023-05-24T05:06:35;22.70;;;13.73;;
79747;SDS011;69232;47.488;19.268;2023-05-24T05:09:05;19.70;;;12.85;;
79747;SDS011;69232;47.488;19.268;2023-05-24T05:11:33;23.02;;;12.85;;
79747;SDS011;69232;47.488;19.268;2023-05-24T05:13:59;22.23;;;13.88;;
79747;SDS011;69232;47.488;19.268;2023-05-24T05:16:24;22.10;;;12.63;;
79747;SDS011;69232;47.488;19.268;2023-05-24T05:18:50;23.65;;;10.93;;
79747;SDS011;69232;47.488;19.268;2023-05-24T05:21:15;21.13;;;13.23;;
79747;SDS011;69232;47.488;19.268;2023-05-24T05:23:41;25.40;;;14.45;;
79747;SDS011;69232;47.488;19.268;2023-05-24T05:26:06;19.13;;;10.65;;
79747;SDS011;69232;47.488;19.268;2023-05-24T05:28:32;18.95;;;10.85;;
79747;SDS011;69232;47.488;19.268;2023-05-24T05:30:57;17.17;;;10.40;;
79747;SDS011;69232;47.488;19.268;2023-05-24T05:33:23;19.88;;;10.55;;
79747;SDS011;69232;47.488;19.268;2023-05-24T05:35:48;16.02;;;9.43;;
79747;SDS011;69232;47.488;19.268;2023-05-24T05:38:14;13.55;;;8.68;;
79747;SDS011;69232;47.488;19.268;2023-05-24T05:40:40;16.17;;;10.52;;
79747;SDS011;69232;47.488;19.268;2023-05-24T05:43:05;17.85;;;8.40;;
79747;SDS011;69232;47.488;19.268;2023-05-24T05:45:32;17.60;;;11.20;;
79747;SDS011;69232;47.488;19.268;2023-05-24T05:47:57;14.70;;;9.43;;
79747;SDS011;69232;47.488;19.268;2023-05-24T05:50:23;18.35;;;10.95;;
79747;SDS011;69232;47.488;19.268;2023-05-24T05:52:48;15.90;;;11.80;;
79747;SDS011;69232;47.488;19.268;2023-05-24T05:55:14;16.00;;;10.50;;
79747;SDS011;69232;47.488;19.268;2023-05-24T05:57:39;16.63;;;10.05;;
79747;SDS011;69232;47.488;19.268;2023-05-24T06:00:05;13.95;;;10.25;;
79747;SDS011;69232;47.488;19.268;2023-05-24T06:02:31;19.25;;;10.82;;
79747;SDS011;69232;47.488;19.268;2023-05-24T06:04:56;15.13;;;10.02;;
79747;SDS011;69232;47.488;19.268;2023-05-24T06:07:22;15.77;;;10.25;;
79747;SDS011;69232;47.488;19.268;2023-05-24T06:09:47;18.90;;;10.90;;
79747;SDS011;69232;47.488;19.268;2023-05-24T06:12:13;14.00;;;8.75;;
79747;SDS011;69232;47.488;19.268;2023-05-24T06:14:38;14.40;;;9.68;;
79747;SDS011;69232;47.488;19.268;2023-05-24T06:17:04;14.55;;;9.95;;
79747;SDS011;69232;47.488;19.268;2023-05-24T06:19:30;15.07;;;11.35;;
79747;SDS011;69232;47.488;19.268;2023-05-24T06:21:57;15.77;;;8.48;;
79747;SDS011;69232;47.488;19.268;2023-05-24T06:24:23;10.95;;;8.10;;
79747;SDS011;69232;47.488;19.268;2023-05-24T06:26:49;10.60;;;7.35;;
79747;SDS011;69232;47.488;19.268;2023-05-24T06:29:15;13.90;;;8.77;;
79747;SDS011;69232;47.488;19.268;2023-05-24T06:31:43;9.93;;;7.57;;
79747;SDS011;69232;47.488;19.268;2023-05-24T06:34:11;12.65;;;7.47;;
79747;SDS011;69232;47.488;19.268;2023-05-24T06:36:36;11.48;;;7.35;;
79747;SDS011;69232;47.488;19.268;2023-05-24T06:39:06;13.00;;;7.45;;
79747;SDS011;69232;47.488;19.268;2023-05-24T06:41:32;10.65;;;6.82;;
79747;SDS011;69232;47.488;19.268;2023-05-24T06:43:58;12.75;;;7.22;;
79747;SDS011;69232;47.488;19.268;2023-05-24T06:46:23;11.13;;;6.82;;
79747;SDS011;69232;47.488;19.268;2023-05-24T06:48:49;11.75;;;6.63;;
79747;SDS011;69232;47.488;19.268;2023-05-24T06:51:14;12.65;;;6.57;;
79747;SDS011;69232;47.488;19.268;2023-05-24T06:53:40;13.95;;;5.50;;
79747;SDS011;69232;47.488;19.268;2023-05-24T06:56:05;9.20;;;5.75;;
79747;SDS011;69232;47.488;19.268;2023-05-24T06:58:33;8.52;;;6.63;;
79747;SDS011;69232;47.488;19.268;2023-05-24T07:00:59;9.80;;;6.97;;
79747;SDS011;69232;47.488;19.268;2023-05-24T07:03:24;12.18;;;6.25;;
79747;SDS011;69232;47.488;19.268;2023-05-24T07:05:50;11.90;;;6.68;;
79747;SDS011;69232;47.488;19.268;2023-05-24T07:08:15;12.52;;;7.80;;
79747;SDS011;69232;47.488;19.268;2023-05-24T07:10:41;11.02;;;6.78;;
79747;SDS011;69232;47.488;19.268;2023-05-24T07:13:07;12.27;;;7.55;;
79747;SDS011;69232;47.488;19.268;2023-05-24T07:15:33;10.77;;;7.70;;
79747;SDS011;69232;47.488;19.268;2023-05-24T07:17:58;9.18;;;7.53;;
79747;SDS011;69232;47.488;19.268;2023-05-24T07:20:24;11.35;;;7.10;;
79747;SDS011;69232;47.488;19.268;2023-05-24T07:22:49;9.30;;;6.97;;
79747;SDS011;69232;47.488;19.268;2023-05-24T07:25:16;11.10;;;7.10;;
79747;SDS011;69232;47.488;19.268;2023-05-24T07:27:41;11.88;;;8.05;;
79747;SDS011;69232;47.488;19.268;2023-05-24T07:30:07;12.02;;;6.85;;
79747;SDS011;69232;47.488;19.268;2023-05-24T07:32:33;10.07;;;6.57;;
79747;SDS011;69232;47.488;19.268;2023-05-24T07:34:58;8.20;;;7.10;;
79747;SDS011;69232;47.488;19.268;2023-05-24T07:37:24;8.90;;;5.88;;
79747;SDS011;69232;47.488;19.268;2023-05-24T07:39:49;7.47;;;5.63;;
79747;SDS011;69232;47.488;19.268;2023-05-24T07:42:16;11.52;;;8.48;;
79747;SDS011;69232;47.488;19.268;2023-05-24T07:44:41;16.00;;;6.80;;
79747;SDS011;69232;47.488;19.268;2023-05-24T07:47:08;9.70;;;6.72;;
79747;SDS011;69232;47.488;19.268;2023-05-24T07:49:33;8.07;;;5.90;;
79747;SDS011;69232;47.488;19.268;2023-05-24T07:51:58;8.80;;;5.78;;
79747;SDS011;69232;47.488;19.268;2023-05-24T07:54:24;10.85;;;6.65;;
79747;SDS011;69232;47.488;19.268;2023-05-24T07:56:50;11.27;;;7.25;;
79747;SDS011;69232;47.488;19.268;2023-05-24T07:59:16;11.40;;;7.20;;
79747;SDS011;69232;47.488;19.268;2023-05-24T08:01:41;10.27;;;6.28;;
79747;SDS011;69232;47.488;19.268;2023-05-24T08:04:07;9.73;;;7.20;;
79747;SDS011;69232;47.488;19.268;2023-05-24T08:06:33;8.35;;;6.22;;
79747;SDS011;69232;47.488;19.268;2023-05-24T08:08:59;11.93;;;6.80;;
79747;SDS011;69232;47.488;19.268;2023-05-24T08:11:26;10.15;;;7.03;;
79747;SDS011;69232;47.488;19.268;2023-05-24T08:13:51;12.48;;;9.18;;
79747;SDS011;69232;47.488;19.268;2023-05-24T08:16:17;13.30;;;8.75;;
79747;SDS011;69232;47.488;19.268;2023-05-24T08:18:42;12.40;;;7.57;;
79747;SDS011;69232;47.488;19.268;2023-05-24T08:21:08;13.13;;;8.65;;
79747;SDS011;69232;47.488;19.268;2023-05-24T08:23:33;11.63;;;8.00;;
79747;SDS011;69232;47.488;19.268;2023-05-24T08:25:59;12.38;;;7.80;;
79747;SDS011;69232;47.488;19.268;2023-05-24T08:28:25;10.43;;;7.15;;
79747;SDS011;69232;47.488;19.268;2023-05-24T08:30:51;13.30;;;9.82;;
79747;SDS011;69232;47.488;19.268;2023-05-24T08:33:16;14.65;;;9.43;;
79747;SDS011;69232;47.488;19.268;2023-05-24T08:35:42;14.25;;;9.52;;
79747;SDS011;69232;47.488;19.268;2023-05-24T08:38:07;11.43;;;8.20;;
79747;SDS011;69232;47.488;19.268;2023-05-24T08:40:33;10.20;;;8.23;;
79747;SDS011;69232;47.488;19.268;2023-05-24T08:42:59;13.40;;;7.53;;
79747;SDS011;69232;47.488;19.268;2023-05-24T08:45:25;11.50;;;8.07;;
79747;SDS011;69232;47.488;19.268;2023-05-24T08:47:54;14.40;;;7.55;;
79747;SDS011;69232;47.488;19.268;2023-05-24T08:50:19;10.07;;;6.95;;
79747;SDS011;69232;47.488;19.268;2023-05-24T08:52:45;11.07;;;8.50;;
79747;SDS011;69232;47.488;19.268;2023-05-24T08:55:10;10.30;;;7.20;;
79747;SDS011;69232;47.488;19.268;2023-05-24T08:57:36;10.98;;;8.05;;
79747;SDS011;69232;47.488;19.268;2023-05-24T09:00:08;9.57;;;6.90;;
79747;SDS011;69232;47.488;19.268;2023-05-24T09:05:00;10.43;;;7.20;;
79747;SDS011;69232;47.488;19.268;2023-05-24T09:07:26;9.23;;;7.05;;
79747;SDS011;69232;47.488;19.268;2023-05-24T09:10:03;10.05;;;7.38;;
79747;SDS011;69232;47.488;19.268;2023-05-24T09:12:29;12.75;;;8.27;;
79747;SDS011;69232;47.488;19.268;2023-05-24T09:14:57;16.02;;;8.60;;
79747;SDS011;69232;47.488;19.268;2023-05-24T09:17:23;15.27;;;8.18;;
79747;SDS011;69232;47.488;19.268;2023-05-24T09:19:49;13.27;;;9.38;;
79747;SDS011;69232;47.488;19.268;2023-05-24T09:22:17;12.93;;;9.02;;
79747;SDS011;69232;47.488;19.268;2023-05-24T09:24:48;10.80;;;7.57;;
79747;SDS011;69232;47.488;19.268;2023-05-24T09:27:17;11.50;;;7.40;;
79747;SDS011;69232;47.488;19.268;2023-05-24T09:29:45;11.57;;;7.43;;
79747;SDS011;69232;47.488;19.268;2023-05-24T09:32:13;8.95;;;6.45;;
79747;SDS011;69232;47.488;19.268;2023-05-24T09:34:39;8.88;;;6.75;;
79747;SDS011;69232;47.488;19.268;2023-05-24T09:37:09;12.50;;;7.60;;
79747;SDS011;69232;47.488;19.268;2023-05-24T09:39:39;10.52;;;7.47;;
79747;SDS011;69232;47.488;19.268;2023-05-24T09:42:06;11.13;;;5.80;;
79747;SDS011;69232;47.488;19.268;2023-05-24T09:44:31;8.95;;;6.85;;
79747;SDS011;69232;47.488;19.268;2023-05-24T09:47:03;7.93;;;5.95;;
79747;SDS011;69232;47.488;19.268;2023-05-24T09:49:29;9.73;;;6.32;;
79747;SDS011;69232;47.488;19.268;2023-05-24T09:51:55;7.97;;;6.47;;
79747;SDS011;69232;47.488;19.268;2023-05-24T09:54:20;9.10;;;6.55;;
79747;SDS011;69232;47.488;19.268;2023-05-24T09:56:46;9.43;;;6.05;;
79747;SDS011;69232;47.488;19.268;2023-05-24T09:59:12;8.00;;;6.13;;
79747;SDS011;69232;47.488;19.268;2023-05-24T10:01:38;11.70;;;6.28;;
79747;SDS011;69232;47.488;19.268;2023-05-24T10:04:03;9.98;;;6.30;;
79747;SDS011;69232;47.488;19.268;2023-05-24T10:06:34;9.27;;;6.68;;
79747;SDS011;69232;47.488;19.268;2023-05-24T10:09:03;6.78;;;6.07;;
79747;SDS011;69232;47.488;19.268;2023-05-24T10:11:33;10.50;;;6.47;;
79747;SDS011;69232;47.488;19.268;2023-05-24T10:14:02;10.65;;;6.82;;
79747;SDS011;69232;47.488;19.268;2023-05-24T10:16:31;9.05;;;6.13;;
79747;SDS011;69232;47.488;19.268;2023-05-24T10:18:57;11.20;;;6.68;;
79747;SDS011;69232;47.488;19.268;2023-05-24T10:21:23;7.28;;;5.30;;
79747;SDS011;69232;47.488;19.268;2023-05-24T10:23:50;7.90;;;5.70;;
79747;SDS011;69232;47.488;19.268;2023-05-24T10:26:16;8.18;;;6.35;;
79747;SDS011;69232;47.488;19.268;2023-05-24T10:28:47;11.25;;;5.63;;
79747;SDS011;69232;47.488;19.268;2023-05-24T10:31:18;7.18;;;5.43;;
79747;SDS011;69232;47.488;19.268;2023-05-24T10:33:52;8.90;;;5.45;;
79747;SDS011;69232;47.488;19.268;2023-05-24T10:36:18;6.25;;;5.65;;
79747;SDS011;69232;47.488;19.268;2023-05-24T10:38:46;7.78;;;5.55;;
79747;SDS011;69232;47.488;19.268;2023-05-24T10:41:12;7.88;;;5.35;;
79747;SDS011;69232;47.488;19.268;2023-05-24T10:43:38;10.45;;;6.10;;
79747;SDS011;69232;47.488;19.268;2023-05-24T10:46:04;7.53;;;5.60;;
79747;SDS011;69232;47.488;19.268;2023-05-24T10:48:31;9.15;;;6.80;;
79747;SDS011;69232;47.488;19.268;2023-05-24T10:51:00;7.07;;;5.20;;
79747;SDS011;69232;47.488;19.268;2023-05-24T10:53:37;9.52;;;5.78;;
79747;SDS011;69232;47.488;19.268;2023-05-24T10:56:04;6.22;;;5.07;;
79747;SDS011;69232;47.488;19.268;2023-05-24T11:00:59;8.50;;;5.22;;
79747;SDS011;69232;47.488;19.268;2023-05-24T11:03:24;8.73;;;5.38;;
79747;SDS011;69232;47.488;19.268;2023-05-24T11:05:57;7.18;;;5.28;;
79747;SDS011;69232;47.488;19.268;2023-05-24T11:08:28;10.00;;;5.07;;
79747;SDS011;69232;47.488;19.268;2023-05-24T11:13:30;7.18;;;4.20;;
79747;SDS011;69232;47.488;19.268;2023-05-24T11:15:57;5.75;;;4.07;;
79747;SDS011;69232;47.488;19.268;2023-05-24T11:18:24;8.55;;;4.22;;
79747;SDS011;69232;47.488;19.268;2023-05-24T11:20:50;5.40;;;4.35;;
79747;SDS011;69232;47.488;19.268;2023-05-24T11:23:15;7.93;;;5.25;;
79747;SDS011;69232;47.488;19.268;2023-05-24T11:25:41;6.65;;;4.53;;
79747;SDS011;69232;47.488;19.268;2023-05-24T11:28:10;8.13;;;3.90;;
79747;SDS011;69232;47.488;19.268;2023-05-24T11:30:42;7.50;;;4.55;;
79747;SDS011;69232;47.488;19.268;2023-05-24T11:33:27;5.40;;;4.50;;
79747;SDS011;69232;47.488;19.268;2023-05-24T11:35:53;7.93;;;4.47;;
79747;SDS011;69232;47.488;19.268;2023-05-24T11:38:19;7.10;;;5.30;;
79747;SDS011;69232;47.488;19.268;2023-05-24T11:40:46;6.10;;;4.65;;
79747;SDS011;69232;47.488;19.268;2023-05-24T11:43:15;7.07;;;4.72;;
79747;SDS011;69232;47.488;19.268;2023-05-24T11:45:45;5.57;;;4.68;;
79747;SDS011;69232;47.488;19.268;2023-05-24T11:48:13;5.78;;;4.50;;
79747;SDS011;69232;47.488;19.268;2023-05-24T11:50:39;5.60;;;4.32;;
79747;SDS011;69232;47.488;19.268;2023-05-24T11:53:09;7.50;;;5.15;;
79747;SDS011;69232;47.488;19.268;2023-05-24T11:55:36;4.88;;;4.25;;
79747;SDS011;69232;47.488;19.268;2023-05-24T11:58:05;5.68;;;4.18;;
79747;SDS011;69232;47.488;19.268;2023-05-24T12:00:34;6.65;;;4.05;;
79747;SDS011;69232;47.488;19.268;2023-05-24T12:03:00;7.95;;;3.90;;
79747;SDS011;69232;47.488;19.268;2023-05-24T12:05:31;5.38;;;4.38;;
79747;SDS011;69232;47.488;19.268;2023-05-24T12:08:06;4.85;;;4.20;;
79747;SDS011;69232;47.488;19.268;2023-05-24T12:10:35;9.88;;;5.00;;
79747;SDS011;69232;47.488;19.268;2023-05-24T12:13:02;9.98;;;4.75;;
79747;SDS011;69232;47.488;19.268;2023-05-24T12:15:28;5.45;;;4.43;;
79747;SDS011;69232;47.488;19.268;2023-05-24T12:17:54;6.93;;;4.07;;
79747;SDS011;69232;47.488;19.268;2023-05-24T12:20:21;8.38;;;4.30;;
79747;SDS011;69232;47.488;19.268;2023-05-24T12:22:47;7.10;;;4.95;;
79747;SDS011;69232;47.488;19.268;2023-05-24T12:25:20;5.95;;;4.75;;
79747;SDS011;69232;47.488;19.268;2023-05-24T12:30:16;5.70;;;4.38;;
79747;SDS011;69232;47.488;19.268;2023-05-24T12:32:48;4.97;;;3.65;;
79747;SDS011;69232;47.488;19.268;2023-05-24T12:35:16;6.82;;;4.70;;
79747;SDS011;69232;47.488;19.268;2023-05-24T12:37:42;6.78;;;4.97;;
79747;SDS011;69232;47.488;19.268;2023-05-24T12:40:14;6.78;;;4.70;;
79747;SDS011;69232;47.488;19.268;2023-05-24T12:42:41;6.28;;;4.43;;
79747;SDS011;69232;47.488;19.268;2023-05-24T12:45:09;5.90;;;4.93;;
79747;SDS011;69232;47.488;19.268;2023-05-24T12:47:34;5.63;;;4.20;;
79747;SDS011;69232;47.488;19.268;2023-05-24T12:50:00;9.98;;;4.72;;
79747;SDS011;69232;47.488;19.268;2023-05-24T12:52:26;9.60;;;5.25;;
79747;SDS011;69232;47.488;19.268;2023-05-24T12:54:51;7.20;;;4.53;;
79747;SDS011;69232;47.488;19.268;2023-05-24T12:57:17;7.72;;;4.30;;
79747;SDS011;69232;47.488;19.268;2023-05-24T12:59:42;6.18;;;4.28;;
79747;SDS011;69232;47.488;19.268;2023-05-24T13:02:08;7.95;;;4.50;;
79747;SDS011;69232;47.488;19.268;2023-05-24T13:04:34;6.10;;;4.38;;
79747;SDS011;69232;47.488;19.268;2023-05-24T13:07:00;6.32;;;4.45;;
79747;SDS011;69232;47.488;19.268;2023-05-24T13:09:27;6.55;;;4.55;;
79747;SDS011;69232;47.488;19.268;2023-05-24T13:11:53;7.82;;;4.78;;
79747;SDS011;69232;47.488;19.268;2023-05-24T13:14:19;6.25;;;4.43;;
79747;SDS011;69232;47.488;19.268;2023-05-24T13:16:44;6.20;;;3.58;;
79747;SDS011;69232;47.488;19.268;2023-05-24T13:19:10;6.97;;;4.43;;
79747;SDS011;69232;47.488;19.268;2023-05-24T13:21:36;5.85;;;3.85;;
79747;SDS011;69232;47.488;19.268;2023-05-24T13:24:02;6.65;;;4.32;;
79747;SDS011;69232;47.488;19.268;2023-05-24T13:26:28;7.05;;;4.60;;
79747;SDS011;69232;47.488;19.268;2023-05-24T13:28:54;8.18;;;4.30;;
79747;SDS011;69232;47.488;19.268;2023-05-24T13:31:20;7.80;;;4.82;;
79747;SDS011;69232;47.488;19.268;2023-05-24T13:33:45;7.13;;;4.72;;
79747;SDS011;69232;47.488;19.268;2023-05-24T13:36:10;8.23;;;5.00;;
79747;SDS011;69232;47.488;19.268;2023-05-24T13:38:36;7.47;;;5.13;;
79747;SDS011;69232;47.488;19.268;2023-05-24T13:41:02;8.35;;;4.50;;
79747;SDS011;69232;47.488;19.268;2023-05-24T13:43:27;7.03;;;4.05;;
79747;SDS011;69232;47.488;19.268;2023-05-24T13:45:53;5.90;;;4.38;;
79747;SDS011;69232;47.488;19.268;2023-05-24T13:48:18;6.78;;;4.72;;
79747;SDS011;69232;47.488;19.268;2023-05-24T13:50:44;6.20;;;3.72;;
79747;SDS011;69232;47.488;19.268;2023-05-24T13:53:09;5.85;;;4.82;;
79747;SDS011;69232;47.488;19.268;2023-05-24T13:55:35;5.20;;;3.75;;
79747;SDS011;69232;47.488;19.268;2023-05-24T13:58:02;6.95;;;4.55;;
79747;SDS011;69232;47.488;19.268;2023-05-24T14:00:29;6.80;;;4.53;;
79747;SDS011;69232;47.488;19.268;2023-05-24T14:02:55;5.57;;;4.43;;
79747;SDS011;69232;47.488;19.268;2023-05-24T14:05:20;6.07;;;4.88;;
79747;SDS011;69232;47.488;19.268;2023-05-24T14:07:47;8.95;;;4.47;;
79747;SDS011;69232;47.488;19.268;2023-05-24T14:10:12;7.90;;;4.20;;
79747;SDS011;69232;47.488;19.268;2023-05-24T14:12:38;8.07;;;4.00;;
79747;SDS011;69232;47.488;19.268;2023-05-24T14:15:04;6.63;;;3.95;;
79747;SDS011;69232;47.488;19.268;2023-05-24T14:17:30;6.40;;;4.43;;
79747;SDS011;69232;47.488;19.268;2023-05-24T14:19:56;6.43;;;4.38;;
79747;SDS011;69232;47.488;19.268;2023-05-24T14:22:21;4.85;;;3.78;;
79747;SDS011;69232;47.488;19.268;2023-05-24T14:24:48;8.85;;;4.18;;
79747;SDS011;69232;47.488;19.268;2023-05-24T14:27:14;6.50;;;3.90;;
79747;SDS011;69232;47.488;19.268;2023-05-24T14:29:39;5.68;;;3.65;;
79747;SDS011;69232;47.488;19.268;2023-05-24T14:32:05;4.95;;;3.92;;
79747;SDS011;69232;47.488;19.268;2023-05-24T14:34:30;6.10;;;4.43;;
79747;SDS011;69232;47.488;19.268;2023-05-24T14:36:56;6.07;;;3.50;;
79747;SDS011;69232;47.488;19.268;2023-05-24T14:39:21;5.00;;;4.30;;
79747;SDS011;69232;47.488;19.268;2023-05-24T14:41:46;5.03;;;3.67;;
79747;SDS011;69232;47.488;19.268;2023-05-24T14:44:12;9.45;;;4.25;;
79747;SDS011;69232;47.488;19.268;2023-05-24T14:46:38;4.65;;;3.60;;
79747;SDS011;69232;47.488;19.268;2023-05-24T14:49:04;6.68;;;4.25;;
79747;SDS011;69232;47.488;19.268;2023-05-24T14:51:30;5.75;;;4.22;;